sensor_id;sensor_type;location;lat;lon;timestamp;temperature;humidity
66190;DHT22;52992;52.084;5.412;2022-12-29T00:01:58;14.30;73.60
66190;DHT22;52992;52.084;5.412;2022-12-29T00:04:25;14.30;73.40
66190;DHT22;52992;52.084;5.412;2022-12-29T00:06:52;14.30;73.60
66190;DHT22;52992;52.084;5.412;2022-12-29T00:09:19;14.30;73.50
66190;DHT22;52992;52.084;5.412;2022-12-29T00:11:46;14.40;73.50
66190;DHT22;52992;52.084;5.412;2022-12-29T00:14:13;14.40;73.50
66190;DHT22;52992;52.084;5.412;2022-12-29T00:16:58;14.40;73.30
66190;DHT22;52992;52.084;5.412;2022-12-29T00:19:25;14.40;73.30
66190;DHT22;52992;52.084;5.412;2022-12-29T00:22:13;14.40;73.20
66190;DHT22;52992;52.084;5.412;2022-12-29T00:25:00;14.50;73.20
66190;DHT22;52992;52.084;5.412;2022-12-29T00:27:45;14.50;72.90
66190;DHT22;52992;52.084;5.412;2022-12-29T00:30:35;14.50;72.70
66190;DHT22;52992;52.084;5.412;2022-12-29T00:33:22;14.50;72.70
66190;DHT22;52992;52.084;5.412;2022-12-29T00:36:11;14.60;72.60
66190;DHT22;52992;52.084;5.412;2022-12-29T00:38:43;14.60;72.60
66190;DHT22;52992;52.084;5.412;2022-12-29T00:41:30;14.60;72.50
66190;DHT22;52992;52.084;5.412;2022-12-29T00:44:15;14.60;72.20
66190;DHT22;52992;52.084;5.412;2022-12-29T00:46:43;14.60;72.30
66190;DHT22;52992;52.084;5.412;2022-12-29T00:49:12;14.60;72.00
66190;DHT22;52992;52.084;5.412;2022-12-29T00:52:09;14.60;71.80
66190;DHT22;52992;52.084;5.412;2022-12-29T00:54:38;14.70;71.80
66190;DHT22;52992;52.084;5.412;2022-12-29T00:57:07;14.70;71.50
66190;DHT22;52992;52.084;5.412;2022-12-29T00:59:35;14.70;71.10
66190;DHT22;52992;52.084;5.412;2022-12-29T01:02:02;14.80;71.00
66190;DHT22;52992;52.084;5.412;2022-12-29T01:04:29;14.70;71.20
66190;DHT22;52992;52.084;5.412;2022-12-29T01:06:56;14.70;71.00
66190;DHT22;52992;52.084;5.412;2022-12-29T01:09:23;14.70;71.10
66190;DHT22;52992;52.084;5.412;2022-12-29T01:12:09;14.80;70.80
66190;DHT22;52992;52.084;5.412;2022-12-29T01:14:37;14.80;70.80
66190;DHT22;52992;52.084;5.412;2022-12-29T01:17:04;14.70;70.60
66190;DHT22;52992;52.084;5.412;2022-12-29T01:19:32;14.70;70.80
66190;DHT22;52992;52.084;5.412;2022-12-29T01:21:59;14.60;71.90
66190;DHT22;52992;52.084;5.412;2022-12-29T01:24:27;14.50;72.60
66190;DHT22;52992;52.084;5.412;2022-12-29T01:26:54;14.40;73.20
66190;DHT22;52992;52.084;5.412;2022-12-29T01:29:21;14.30;73.80
66190;DHT22;52992;52.084;5.412;2022-12-29T01:31:48;14.20;74.00
66190;DHT22;52992;52.084;5.412;2022-12-29T01:34:17;14.30;75.00
66190;DHT22;52992;52.084;5.412;2022-12-29T01:36:44;14.20;74.10
66190;DHT22;52992;52.084;5.412;2022-12-29T01:39:12;14.10;74.40
66190;DHT22;52992;52.084;5.412;2022-12-29T01:41:40;14.10;74.60
66190;DHT22;52992;52.084;5.412;2022-12-29T01:44:41;14.10;74.70
66190;DHT22;52992;52.084;5.412;2022-12-29T01:47:26;14.00;75.00
66190;DHT22;52992;52.084;5.412;2022-12-29T01:49:56;14.00;75.30
66190;DHT22;52992;52.084;5.412;2022-12-29T01:52:26;14.00;75.10
66190;DHT22;52992;52.084;5.412;2022-12-29T01:54:55;13.90;75.40
66190;DHT22;52992;52.084;5.412;2022-12-29T01:57:33;14.00;75.20
66190;DHT22;52992;52.084;5.412;2022-12-29T02:00:06;14.00;75.50
66190;DHT22;52992;52.084;5.412;2022-12-29T02:02:52;14.00;75.50
66190;DHT22;52992;52.084;5.412;2022-12-29T02:05:33;14.00;75.40
66190;DHT22;52992;52.084;5.412;2022-12-29T02:08:02;14.00;75.30
66190;DHT22;52992;52.084;5.412;2022-12-29T02:10:31;14.00;75.30
66190;DHT22;52992;52.084;5.412;2022-12-29T02:12:59;13.90;75.40
66190;DHT22;52992;52.084;5.412;2022-12-29T02:15:48;13.90;75.80
66190;DHT22;52992;52.084;5.412;2022-12-29T02:18:44;13.80;75.70
66190;DHT22;52992;52.084;5.412;2022-12-29T02:35:36;13.90;75.40
66190;DHT22;52992;52.084;5.412;2022-12-29T02:43:56;13.80;75.50
66190;DHT22;52992;52.084;5.412;2022-12-29T02:46:27;13.90;75.30
66190;DHT22;52992;52.084;5.412;2022-12-29T02:49:15;13.90;74.90
66190;DHT22;52992;52.084;5.412;2022-12-29T02:52:10;13.80;74.60
66190;DHT22;52992;52.084;5.412;2022-12-29T02:54:38;13.80;74.90
66190;DHT22;52992;52.084;5.412;2022-12-29T02:59:51;13.80;75.00
66190;DHT22;52992;52.084;5.412;2022-12-29T03:13:42;13.70;74.80
66190;DHT22;52992;52.084;5.412;2022-12-29T03:16:41;13.70;75.00
66190;DHT22;52992;52.084;5.412;2022-12-29T03:19:21;13.60;74.90
66190;DHT22;52992;52.084;5.412;2022-12-29T03:21:55;13.70;75.20
66190;DHT22;52992;52.084;5.412;2022-12-29T03:24:53;13.70;75.00
66190;DHT22;52992;52.084;5.412;2022-12-29T03:27:29;13.70;74.90
66190;DHT22;52992;52.084;5.412;2022-12-29T03:30:00;13.70;75.00
66190;DHT22;52992;52.084;5.412;2022-12-29T03:32:32;13.70;74.60
66190;DHT22;52992;52.084;5.412;2022-12-29T03:35:01;13.70;74.60
66190;DHT22;52992;52.084;5.412;2022-12-29T03:37:31;13.60;74.40
66190;DHT22;52992;52.084;5.412;2022-12-29T03:40:02;13.60;74.50
66190;DHT22;52992;52.084;5.412;2022-12-29T03:42:32;13.50;74.50
66190;DHT22;52992;52.084;5.412;2022-12-29T03:45:00;13.40;74.50
66190;DHT22;52992;52.084;5.412;2022-12-29T03:47:27;13.40;74.60
66190;DHT22;52992;52.084;5.412;2022-12-29T03:49:54;13.40;74.80
66190;DHT22;52992;52.084;5.412;2022-12-29T03:52:21;13.50;74.80
66190;DHT22;52992;52.084;5.412;2022-12-29T03:54:50;13.50;74.60
66190;DHT22;52992;52.084;5.412;2022-12-29T03:57:18;13.50;74.20
66190;DHT22;52992;52.084;5.412;2022-12-29T04:00:03;13.50;74.30
66190;DHT22;52992;52.084;5.412;2022-12-29T04:02:41;13.50;74.00
66190;DHT22;52992;52.084;5.412;2022-12-29T04:05:12;13.50;74.90
66190;DHT22;52992;52.084;5.412;2022-12-29T04:07:40;13.50;74.40
66190;DHT22;52992;52.084;5.412;2022-12-29T04:10:07;13.60;74.10
66190;DHT22;52992;52.084;5.412;2022-12-29T04:12:35;13.60;74.40
66190;DHT22;52992;52.084;5.412;2022-12-29T04:15:02;13.70;73.60
66190;DHT22;52992;52.084;5.412;2022-12-29T04:17:30;13.70;73.40
66190;DHT22;52992;52.084;5.412;2022-12-29T04:19:57;13.70;73.10
66190;DHT22;52992;52.084;5.412;2022-12-29T04:22:43;13.60;73.10
66190;DHT22;52992;52.084;5.412;2022-12-29T04:25:12;13.60;73.20
66190;DHT22;52992;52.084;5.412;2022-12-29T04:27:41;13.50;73.60
66190;DHT22;52992;52.084;5.412;2022-12-29T04:30:31;13.50;73.60
66190;DHT22;52992;52.084;5.412;2022-12-29T04:33:19;13.50;73.70
66190;DHT22;52992;52.084;5.412;2022-12-29T04:35:47;13.40;73.20
66190;DHT22;52992;52.084;5.412;2022-12-29T04:38:14;13.40;73.40
66190;DHT22;52992;52.084;5.412;2022-12-29T04:40:43;13.30;73.20
66190;DHT22;52992;52.084;5.412;2022-12-29T04:43:11;13.20;72.90
66190;DHT22;52992;52.084;5.412;2022-12-29T04:45:57;13.20;73.30
66190;DHT22;52992;52.084;5.412;2022-12-29T04:48:29;13.30;73.00
66190;DHT22;52992;52.084;5.412;2022-12-29T04:51:10;13.30;73.00
66190;DHT22;52992;52.084;5.412;2022-12-29T04:53:39;13.30;72.60
66190;DHT22;52992;52.084;5.412;2022-12-29T04:56:06;13.40;72.60
66190;DHT22;52992;52.084;5.412;2022-12-29T04:58:33;13.30;71.50
66190;DHT22;52992;52.084;5.412;2022-12-29T05:01:00;13.30;72.00
66190;DHT22;52992;52.084;5.412;2022-12-29T05:03:29;13.30;72.00
66190;DHT22;52992;52.084;5.412;2022-12-29T05:05:56;13.30;71.50
66190;DHT22;52992;52.084;5.412;2022-12-29T05:08:24;13.30;71.70
66190;DHT22;52992;52.084;5.412;2022-12-29T05:10:57;13.40;71.10
66190;DHT22;52992;52.084;5.412;2022-12-29T05:13:24;13.30;70.80
66190;DHT22;52992;52.084;5.412;2022-12-29T05:15:51;13.40;71.10
66190;DHT22;52992;52.084;5.412;2022-12-29T05:18:21;13.40;71.00
66190;DHT22;52992;52.084;5.412;2022-12-29T05:20:48;13.40;70.90
66190;DHT22;52992;52.084;5.412;2022-12-29T05:23:17;13.40;70.60
66190;DHT22;52992;52.084;5.412;2022-12-29T05:25:50;13.30;70.60
66190;DHT22;52992;52.084;5.412;2022-12-29T05:28:21;13.20;70.10
66190;DHT22;52992;52.084;5.412;2022-12-29T05:30:51;13.20;70.50
66190;DHT22;52992;52.084;5.412;2022-12-29T05:33:19;13.20;70.80
66190;DHT22;52992;52.084;5.412;2022-12-29T05:35:47;13.20;70.60
66190;DHT22;52992;52.084;5.412;2022-12-29T05:38:14;13.20;70.50
66190;DHT22;52992;52.084;5.412;2022-12-29T05:40:44;13.30;70.50
66190;DHT22;52992;52.084;5.412;2022-12-29T05:43:34;13.30;70.20
66190;DHT22;52992;52.084;5.412;2022-12-29T05:46:12;13.30;70.30
66190;DHT22;52992;52.084;5.412;2022-12-29T05:48:46;13.40;70.10
66190;DHT22;52992;52.084;5.412;2022-12-29T05:51:23;13.40;69.80
66190;DHT22;52992;52.084;5.412;2022-12-29T05:53:53;13.30;70.00
66190;DHT22;52992;52.084;5.412;2022-12-29T05:56:21;13.30;69.80
66190;DHT22;52992;52.084;5.412;2022-12-29T05:58:54;13.20;69.90
66190;DHT22;52992;52.084;5.412;2022-12-29T06:01:22;13.30;69.90
66190;DHT22;52992;52.084;5.412;2022-12-29T06:03:49;13.30;69.70
66190;DHT22;52992;52.084;5.412;2022-12-29T06:06:19;13.30;69.40
66190;DHT22;52992;52.084;5.412;2022-12-29T06:08:46;13.30;69.10
66190;DHT22;52992;52.084;5.412;2022-12-29T06:11:13;13.30;68.90
66190;DHT22;52992;52.084;5.412;2022-12-29T06:13:47;13.30;68.90
66190;DHT22;52992;52.084;5.412;2022-12-29T06:16:18;13.30;68.20
66190;DHT22;52992;52.084;5.412;2022-12-29T06:18:45;13.30;68.00
66190;DHT22;52992;52.084;5.412;2022-12-29T06:21:12;13.20;68.10
66190;DHT22;52992;52.084;5.412;2022-12-29T06:23:39;13.30;67.80
66190;DHT22;52992;52.084;5.412;2022-12-29T06:26:06;13.30;67.70
66190;DHT22;52992;52.084;5.412;2022-12-29T06:28:33;13.30;67.50
66190;DHT22;52992;52.084;5.412;2022-12-29T06:31:00;13.30;67.60
66190;DHT22;52992;52.084;5.412;2022-12-29T06:33:29;13.30;68.70
66190;DHT22;52992;52.084;5.412;2022-12-29T06:35:56;13.30;67.60
66190;DHT22;52992;52.084;5.412;2022-12-29T06:38:23;13.30;67.80
66190;DHT22;52992;52.084;5.412;2022-12-29T06:40:50;13.20;68.30
66190;DHT22;52992;52.084;5.412;2022-12-29T06:43:46;13.20;68.20
66190;DHT22;52992;52.084;5.412;2022-12-29T06:46:39;13.20;68.70
66190;DHT22;52992;52.084;5.412;2022-12-29T06:49:06;13.20;68.50
66190;DHT22;52992;52.084;5.412;2022-12-29T06:51:33;13.10;68.60
66190;DHT22;52992;52.084;5.412;2022-12-29T06:53:59;13.10;68.60
66190;DHT22;52992;52.084;5.412;2022-12-29T06:56:26;13.00;68.20
66190;DHT22;52992;52.084;5.412;2022-12-29T06:58:53;13.00;68.90
66190;DHT22;52992;52.084;5.412;2022-12-29T07:01:20;13.00;68.40
66190;DHT22;52992;52.084;5.412;2022-12-29T07:03:47;13.00;68.30
66190;DHT22;52992;52.084;5.412;2022-12-29T07:06:15;12.90;68.00
66190;DHT22;52992;52.084;5.412;2022-12-29T07:08:42;12.80;68.00
66190;DHT22;52992;52.084;5.412;2022-12-29T07:11:09;12.80;68.30
66190;DHT22;52992;52.084;5.412;2022-12-29T07:13:36;12.70;68.60
66190;DHT22;52992;52.084;5.412;2022-12-29T07:16:07;12.50;69.50
66190;DHT22;52992;52.084;5.412;2022-12-29T07:18:35;12.40;70.00
66190;DHT22;52992;52.084;5.412;2022-12-29T07:21:02;12.40;70.60
66190;DHT22;52992;52.084;5.412;2022-12-29T07:23:29;12.30;71.30
66190;DHT22;52992;52.084;5.412;2022-12-29T07:26:04;12.20;71.50
66190;DHT22;52992;52.084;5.412;2022-12-29T07:28:32;12.20;71.80
66190;DHT22;52992;52.084;5.412;2022-12-29T07:30:59;12.10;71.60
66190;DHT22;52992;52.084;5.412;2022-12-29T07:33:28;12.10;71.90
66190;DHT22;52992;52.084;5.412;2022-12-29T07:35:55;12.00;71.90
66190;DHT22;52992;52.084;5.412;2022-12-29T07:38:22;12.00;72.20
66190;DHT22;52992;52.084;5.412;2022-12-29T07:40:49;12.00;72.50
66190;DHT22;52992;52.084;5.412;2022-12-29T07:43:16;12.00;72.30
66190;DHT22;52992;52.084;5.412;2022-12-29T07:45:57;12.00;72.30
66190;DHT22;52992;52.084;5.412;2022-12-29T07:48:27;12.10;72.30
66190;DHT22;52992;52.084;5.412;2022-12-29T07:50:54;12.10;72.40
66190;DHT22;52992;52.084;5.412;2022-12-29T07:53:21;12.10;72.20
66190;DHT22;52992;52.084;5.412;2022-12-29T07:55:47;12.20;72.40
66190;DHT22;52992;52.084;5.412;2022-12-29T07:58:14;12.20;72.20
66190;DHT22;52992;52.084;5.412;2022-12-29T08:00:41;12.30;72.20
66190;DHT22;52992;52.084;5.412;2022-12-29T08:03:08;12.40;71.90
66190;DHT22;52992;52.084;5.412;2022-12-29T08:05:34;12.40;71.60
66190;DHT22;52992;52.084;5.412;2022-12-29T08:08:01;12.50;71.70
66190;DHT22;52992;52.084;5.412;2022-12-29T08:10:28;12.60;71.50
66190;DHT22;52992;52.084;5.412;2022-12-29T08:12:55;12.60;71.40
66190;DHT22;52992;52.084;5.412;2022-12-29T08:15:22;12.60;71.20
66190;DHT22;52992;52.084;5.412;2022-12-29T08:17:58;12.70;71.70
66190;DHT22;52992;52.084;5.412;2022-12-29T08:20:25;12.70;70.90
66190;DHT22;52992;52.084;5.412;2022-12-29T08:22:52;12.70;70.80
66190;DHT22;52992;52.084;5.412;2022-12-29T08:25:18;12.80;70.70
66190;DHT22;52992;52.084;5.412;2022-12-29T08:27:46;12.80;70.30
66190;DHT22;52992;52.084;5.412;2022-12-29T08:30:13;12.80;70.40
66190;DHT22;52992;52.084;5.412;2022-12-29T08:32:40;12.80;70.10
66190;DHT22;52992;52.084;5.412;2022-12-29T08:35:07;12.80;69.70
66190;DHT22;52992;52.084;5.412;2022-12-29T08:37:34;12.70;69.60
66190;DHT22;52992;52.084;5.412;2022-12-29T08:40:01;12.80;69.50
66190;DHT22;52992;52.084;5.412;2022-12-29T08:42:31;12.90;69.40
66190;DHT22;52992;52.084;5.412;2022-12-29T08:45:01;12.90;69.40
66190;DHT22;52992;52.084;5.412;2022-12-29T08:47:28;13.00;68.50
66190;DHT22;52992;52.084;5.412;2022-12-29T08:49:55;13.00;68.70
66190;DHT22;52992;52.084;5.412;2022-12-29T08:52:22;13.00;68.40
66190;DHT22;52992;52.084;5.412;2022-12-29T08:54:49;13.00;68.20
66190;DHT22;52992;52.084;5.412;2022-12-29T08:57:16;13.00;68.50
66190;DHT22;52992;52.084;5.412;2022-12-29T08:59:58;13.00;68.80
66190;DHT22;52992;52.084;5.412;2022-12-29T09:02:24;13.00;68.70
66190;DHT22;52992;52.084;5.412;2022-12-29T09:04:52;12.90;68.70
66190;DHT22;52992;52.084;5.412;2022-12-29T09:07:19;13.00;68.60
66190;DHT22;52992;52.084;5.412;2022-12-29T09:09:46;13.00;68.20
66190;DHT22;52992;52.084;5.412;2022-12-29T09:12:12;13.10;68.10
66190;DHT22;52992;52.084;5.412;2022-12-29T09:14:39;13.10;68.10
66190;DHT22;52992;52.084;5.412;2022-12-29T09:17:06;13.00;68.90
66190;DHT22;52992;52.084;5.412;2022-12-29T09:19:52;13.00;68.30
66190;DHT22;52992;52.084;5.412;2022-12-29T09:22:19;13.00;68.50
66190;DHT22;52992;52.084;5.412;2022-12-29T09:24:45;13.00;68.70
66190;DHT22;52992;52.084;5.412;2022-12-29T09:27:12;13.10;68.80
66190;DHT22;52992;52.084;5.412;2022-12-29T09:29:39;13.20;68.40
66190;DHT22;52992;52.084;5.412;2022-12-29T09:32:06;13.20;68.10
66190;DHT22;52992;52.084;5.412;2022-12-29T09:34:37;13.20;67.80
66190;DHT22;52992;52.084;5.412;2022-12-29T09:37:04;13.10;68.60
66190;DHT22;52992;52.084;5.412;2022-12-29T09:39:30;13.10;69.00
66190;DHT22;52992;52.084;5.412;2022-12-29T09:42:07;13.10;69.40
66190;DHT22;52992;52.084;5.412;2022-12-29T09:47:25;13.00;70.20
66190;DHT22;52992;52.084;5.412;2022-12-29T09:49:56;12.90;70.70
66190;DHT22;52992;52.084;5.412;2022-12-29T09:52:36;12.80;70.90
66190;DHT22;52992;52.084;5.412;2022-12-29T09:55:10;12.70;71.80
66190;DHT22;52992;52.084;5.412;2022-12-29T09:58:06;12.80;71.80
66190;DHT22;52992;52.084;5.412;2022-12-29T10:03:24;12.80;71.50
66190;DHT22;52992;52.084;5.412;2022-12-29T10:08:48;12.80;71.60
66190;DHT22;52992;52.084;5.412;2022-12-29T10:14:17;12.90;71.60
66190;DHT22;52992;52.084;5.412;2022-12-29T10:25:44;12.90;71.70
66190;DHT22;52992;52.084;5.412;2022-12-29T10:28:23;12.90;71.70
66190;DHT22;52992;52.084;5.412;2022-12-29T10:30:51;12.80;72.00
66190;DHT22;52992;52.084;5.412;2022-12-29T10:33:22;12.80;72.00
66190;DHT22;52992;52.084;5.412;2022-12-29T10:35:50;12.80;72.10
66190;DHT22;52992;52.084;5.412;2022-12-29T10:38:40;12.80;72.00
66190;DHT22;52992;52.084;5.412;2022-12-29T10:41:15;12.90;72.10
66190;DHT22;52992;52.084;5.412;2022-12-29T10:43:53;13.00;71.70
66190;DHT22;52992;52.084;5.412;2022-12-29T10:46:23;13.00;71.50
66190;DHT22;52992;52.084;5.412;2022-12-29T10:48:51;13.00;71.60
66190;DHT22;52992;52.084;5.412;2022-12-29T10:51:24;13.10;71.70
66190;DHT22;52992;52.084;5.412;2022-12-29T10:53:57;13.20;71.30
66190;DHT22;52992;52.084;5.412;2022-12-29T10:56:34;13.20;71.00
66190;DHT22;52992;52.084;5.412;2022-12-29T11:07:11;13.00;71.60
66190;DHT22;52992;52.084;5.412;2022-12-29T11:09:43;13.10;71.70
66190;DHT22;52992;52.084;5.412;2022-12-29T11:12:19;13.10;71.60
66190;DHT22;52992;52.084;5.412;2022-12-29T11:14:47;13.10;71.70
66190;DHT22;52992;52.084;5.412;2022-12-29T11:17:16;13.10;71.40
66190;DHT22;52992;52.084;5.412;2022-12-29T11:19:44;13.00;71.80
66190;DHT22;52992;52.084;5.412;2022-12-29T11:22:22;13.10;71.80
66190;DHT22;52992;52.084;5.412;2022-12-29T11:24:50;13.10;71.90
66190;DHT22;52992;52.084;5.412;2022-12-29T11:27:19;13.20;71.50
66190;DHT22;52992;52.084;5.412;2022-12-29T11:29:47;13.40;72.20
66190;DHT22;52992;52.084;5.412;2022-12-29T11:32:24;13.40;70.70
66190;DHT22;52992;52.084;5.412;2022-12-29T11:34:56;13.20;71.00
66190;DHT22;52992;52.084;5.412;2022-12-29T11:37:27;13.10;71.50
66190;DHT22;52992;52.084;5.412;2022-12-29T11:39:58;13.00;71.50
66190;DHT22;52992;52.084;5.412;2022-12-29T11:42:36;13.00;71.70
66190;DHT22;52992;52.084;5.412;2022-12-29T11:45:09;12.90;72.00
66190;DHT22;52992;52.084;5.412;2022-12-29T11:47:43;12.80;71.50
66190;DHT22;52992;52.084;5.412;2022-12-29T11:50:18;12.80;71.80
66190;DHT22;52992;52.084;5.412;2022-12-29T11:52:48;12.90;71.80
66190;DHT22;52992;52.084;5.412;2022-12-29T11:55:21;13.00;71.50
66190;DHT22;52992;52.084;5.412;2022-12-29T11:57:51;13.10;71.00
66190;DHT22;52992;52.084;5.412;2022-12-29T12:00:20;13.10;70.50
66190;DHT22;52992;52.084;5.412;2022-12-29T12:02:56;13.10;70.60
66190;DHT22;52992;52.084;5.412;2022-12-29T12:05:35;13.10;70.70
66190;DHT22;52992;52.084;5.412;2022-12-29T12:10:57;13.20;70.60
66190;DHT22;52992;52.084;5.412;2022-12-29T12:13:31;13.30;70.40
66190;DHT22;52992;52.084;5.412;2022-12-29T12:16:15;13.50;70.60
66190;DHT22;52992;52.084;5.412;2022-12-29T12:18:55;13.90;70.10
66190;DHT22;52992;52.084;5.412;2022-12-29T12:21:32;14.10;68.40
66190;DHT22;52992;52.084;5.412;2022-12-29T12:27:08;14.20;68.00
66190;DHT22;52992;52.084;5.412;2022-12-29T12:30:05;14.10;68.20
66190;DHT22;52992;52.084;5.412;2022-12-29T12:35:14;14.10;68.60
66190;DHT22;52992;52.084;5.412;2022-12-29T12:38:51;14.10;68.40
66190;DHT22;52992;52.084;5.412;2022-12-29T12:41:14;14.10;68.30
66190;DHT22;52992;52.084;5.412;2022-12-29T12:44:02;14.10;68.60
66190;DHT22;52992;52.084;5.412;2022-12-29T12:49:29;14.00;67.60
66190;DHT22;52992;52.084;5.412;2022-12-29T13:00:12;14.00;67.80
66190;DHT22;52992;52.084;5.412;2022-12-29T13:11:21;13.90;67.70
66190;DHT22;52992;52.084;5.412;2022-12-29T13:14:09;13.80;67.90
66190;DHT22;52992;52.084;5.412;2022-12-29T13:34:14;13.90;66.90
66190;DHT22;52992;52.084;5.412;2022-12-29T13:37:08;13.70;67.60
66190;DHT22;52992;52.084;5.412;2022-12-29T13:39:58;13.60;68.00
66190;DHT22;52992;52.084;5.412;2022-12-29T13:42:26;13.70;68.30
66190;DHT22;52992;52.084;5.412;2022-12-29T13:45:04;13.60;68.20
66190;DHT22;52992;52.084;5.412;2022-12-29T13:47:42;13.60;68.50
66190;DHT22;52992;52.084;5.412;2022-12-29T13:50:16;13.60;68.50
66190;DHT22;52992;52.084;5.412;2022-12-29T13:53:10;13.50;68.60
66190;DHT22;52992;52.084;5.412;2022-12-29T13:55:50;13.50;68.50
66190;DHT22;52992;52.084;5.412;2022-12-29T13:58:43;13.60;68.10
66190;DHT22;52992;52.084;5.412;2022-12-29T14:04:21;13.60;67.50
66190;DHT22;52992;52.084;5.412;2022-12-29T14:07:02;13.60;67.30
66190;DHT22;52992;52.084;5.412;2022-12-29T14:09:48;13.60;67.60
66190;DHT22;52992;52.084;5.412;2022-12-29T14:14:48;13.50;67.20
66190;DHT22;52992;52.084;5.412;2022-12-29T14:17:19;13.40;67.20
66190;DHT22;52992;52.084;5.412;2022-12-29T14:19:47;13.30;67.70
66190;DHT22;52992;52.084;5.412;2022-12-29T14:22:24;13.10;68.40
66190;DHT22;52992;52.084;5.412;2022-12-29T14:24:59;12.90;69.00
66190;DHT22;52992;52.084;5.412;2022-12-29T14:29:55;12.70;70.10
66190;DHT22;52992;52.084;5.412;2022-12-29T14:34:56;12.60;70.50
66190;DHT22;52992;52.084;5.412;2022-12-29T14:37:24;12.60;70.60
66190;DHT22;52992;52.084;5.412;2022-12-29T14:40:24;12.60;70.80
66190;DHT22;52992;52.084;5.412;2022-12-29T14:42:55;12.50;71.00
66190;DHT22;52992;52.084;5.412;2022-12-29T14:45:26;12.40;71.00
66190;DHT22;52992;52.084;5.412;2022-12-29T14:47:54;12.40;71.30
66190;DHT22;52992;52.084;5.412;2022-12-29T14:50:38;12.30;71.40
66190;DHT22;52992;52.084;5.412;2022-12-29T14:53:09;12.30;71.90
66190;DHT22;52992;52.084;5.412;2022-12-29T14:55:57;12.40;72.00
66190;DHT22;52992;52.084;5.412;2022-12-29T14:58:28;12.40;71.60
66190;DHT22;52992;52.084;5.412;2022-12-29T15:00:57;12.40;71.60
66190;DHT22;52992;52.084;5.412;2022-12-29T15:03:44;12.40;71.70
66190;DHT22;52992;52.084;5.412;2022-12-29T15:06:13;12.40;72.00
66190;DHT22;52992;52.084;5.412;2022-12-29T15:09:00;12.50;72.20
66190;DHT22;52992;52.084;5.412;2022-12-29T15:14:03;12.50;72.20
66190;DHT22;52992;52.084;5.412;2022-12-29T15:16:32;12.50;72.20
66190;DHT22;52992;52.084;5.412;2022-12-29T15:18:59;12.50;72.00
66190;DHT22;52992;52.084;5.412;2022-12-29T15:21:29;12.50;72.20
66190;DHT22;52992;52.084;5.412;2022-12-29T15:23:57;12.50;73.30
66190;DHT22;52992;52.084;5.412;2022-12-29T15:26:40;12.60;73.80
66190;DHT22;52992;52.084;5.412;2022-12-29T15:29:37;12.60;73.80
66190;DHT22;52992;52.084;5.412;2022-12-29T15:32:25;12.60;74.30
66190;DHT22;52992;52.084;5.412;2022-12-29T15:34:54;12.50;74.40
66190;DHT22;52992;52.084;5.412;2022-12-29T15:37:26;12.60;73.70
66190;DHT22;52992;52.084;5.412;2022-12-29T15:39:54;12.60;73.90
66190;DHT22;52992;52.084;5.412;2022-12-29T15:42:47;12.50;74.10
66190;DHT22;52992;52.084;5.412;2022-12-29T15:45:16;12.60;74.20
66190;DHT22;52992;52.084;5.412;2022-12-29T15:47:45;12.60;73.60
66190;DHT22;52992;52.084;5.412;2022-12-29T15:50:30;12.60;73.60
66190;DHT22;52992;52.084;5.412;2022-12-29T15:52:58;12.50;73.90
66190;DHT22;52992;52.084;5.412;2022-12-29T15:55:32;12.50;73.80
66190;DHT22;52992;52.084;5.412;2022-12-29T15:58:02;12.50;73.90
66190;DHT22;52992;52.084;5.412;2022-12-29T16:00:35;12.60;73.90
66190;DHT22;52992;52.084;5.412;2022-12-29T16:03:05;12.50;73.20
66190;DHT22;52992;52.084;5.412;2022-12-29T16:05:37;12.50;73.10
66190;DHT22;52992;52.084;5.412;2022-12-29T16:08:34;12.40;72.80
66190;DHT22;52992;52.084;5.412;2022-12-29T16:11:21;12.40;73.00
66190;DHT22;52992;52.084;5.412;2022-12-29T16:13:50;12.50;73.00
66190;DHT22;52992;52.084;5.412;2022-12-29T16:16:20;12.50;73.10
66190;DHT22;52992;52.084;5.412;2022-12-29T16:18:50;12.50;72.50
66190;DHT22;52992;52.084;5.412;2022-12-29T16:21:27;12.40;72.00
66190;DHT22;52992;52.084;5.412;2022-12-29T16:23:59;12.40;72.00
66190;DHT22;52992;52.084;5.412;2022-12-29T16:26:27;12.40;71.90
66190;DHT22;52992;52.084;5.412;2022-12-29T16:28:59;12.40;71.70
66190;DHT22;52992;52.084;5.412;2022-12-29T16:31:58;12.40;71.70
66190;DHT22;52992;52.084;5.412;2022-12-29T16:34:33;12.40;71.50
66190;DHT22;52992;52.084;5.412;2022-12-29T16:37:04;12.40;70.80
66190;DHT22;52992;52.084;5.412;2022-12-29T16:39:39;12.30;71.00
66190;DHT22;52992;52.084;5.412;2022-12-29T16:47:47;12.10;71.20
66190;DHT22;52992;52.084;5.412;2022-12-29T16:50:22;12.00;70.60
66190;DHT22;52992;52.084;5.412;2022-12-29T16:52:54;11.90;71.10
66190;DHT22;52992;52.084;5.412;2022-12-29T16:55:21;12.00;71.60
66190;DHT22;52992;52.084;5.412;2022-12-29T16:57:49;11.90;70.90
66190;DHT22;52992;52.084;5.412;2022-12-29T17:00:21;11.90;70.80
66190;DHT22;52992;52.084;5.412;2022-12-29T17:02:50;11.90;70.90
66190;DHT22;52992;52.084;5.412;2022-12-29T17:05:19;11.80;70.60
66190;DHT22;52992;52.084;5.412;2022-12-29T17:07:46;11.80;70.20
66190;DHT22;52992;52.084;5.412;2022-12-29T17:10:13;11.70;70.00
66190;DHT22;52992;52.084;5.412;2022-12-29T17:12:43;11.60;70.30
66190;DHT22;52992;52.084;5.412;2022-12-29T17:17:47;11.60;70.20
66190;DHT22;52992;52.084;5.412;2022-12-29T17:20:24;11.60;70.20
66190;DHT22;52992;52.084;5.412;2022-12-29T17:22:51;11.60;70.10
66190;DHT22;52992;52.084;5.412;2022-12-29T17:25:21;11.60;70.20
66190;DHT22;52992;52.084;5.412;2022-12-29T17:28:00;11.60;70.20
66190;DHT22;52992;52.084;5.412;2022-12-29T17:30:28;11.60;69.80
66190;DHT22;52992;52.084;5.412;2022-12-29T17:33:26;11.50;69.80
66190;DHT22;52992;52.084;5.412;2022-12-29T17:35:53;11.50;69.70
66190;DHT22;52992;52.084;5.412;2022-12-29T17:38:22;11.50;69.70
66190;DHT22;52992;52.084;5.412;2022-12-29T17:40:51;11.60;69.70
66190;DHT22;52992;52.084;5.412;2022-12-29T17:43:18;11.50;69.30
66190;DHT22;52992;52.084;5.412;2022-12-29T17:45:52;11.50;69.30
66190;DHT22;52992;52.084;5.412;2022-12-29T17:48:20;11.50;69.60
66190;DHT22;52992;52.084;5.412;2022-12-29T17:50:49;11.50;69.50
66190;DHT22;52992;52.084;5.412;2022-12-29T17:53:23;11.50;69.10
66190;DHT22;52992;52.084;5.412;2022-12-29T17:55:50;11.40;69.10
66190;DHT22;52992;52.084;5.412;2022-12-29T17:58:19;11.30;69.00
66190;DHT22;52992;52.084;5.412;2022-12-29T18:00:49;11.40;69.10
66190;DHT22;52992;52.084;5.412;2022-12-29T18:03:28;11.30;68.90
66190;DHT22;52992;52.084;5.412;2022-12-29T18:05:56;11.30;69.00
66190;DHT22;52992;52.084;5.412;2022-12-29T18:08:23;11.40;68.80
66190;DHT22;52992;52.084;5.412;2022-12-29T18:10:51;11.40;68.70
66190;DHT22;52992;52.084;5.412;2022-12-29T18:13:28;11.50;68.30
66190;DHT22;52992;52.084;5.412;2022-12-29T18:16:11;11.50;68.20